Main page
METAR-TAF:

Airports :

Rovaniemi, Finland

Rovaniemi Airport

latitude: 66-34N, longitude: 025-50E, elevation: 197 m

Current weather observation

The report was made 28 minutes ago, at 05:20 UTC
Wind 8 kt from the South/Southwest
Temperature 14°C
Humidity 55%
Pressure 1029 hPa
Visibility 10 km or more
no clouds below 1500 m and no cumulonimbus

METAR: EFRO 280520Z AUTO 21008KT CAVOK 14/05 Q1029

Time: 08:48 (05:48 UTC)

Forecast

The report was made 20 minutes ago, at 05:28 UTC
Forecast valid from 28 at 06 UTC to 29 at 06 UTC
Wind 10 kt from the Southwest
Visibility 10 km or more
no clouds below 1500 m and no cumulonimbus

TAF: EFRO 280528Z 2806/2906 22010KT CAVOK

METAR-TAF

Weather observations and forecasts of more than 4000 airports (METAR and TAF reports).

The available stations are represented by yellow and red dots on the map.

Hover mouse over dot to see the name of the station.

Then click to see weather observations and forecasts.

To change the map : click on the green buttons with a black cross to zoom in, on the green button with a dash to zoom out, or on the green arrows for adjacent maps.


METAR-TAF: